Time;durP1;ratioP1;P1;durP2;ratioP2;P2;SDS_P1;SDS_P2;PMS_P1;PMS_P2;Temp;Humidity;BMP_temperature;BMP_pressure;BME280_temperature;BME280_humidity;BME280_pressure;Samples;Min_cycle;Max_cycle;Signal;HPM_P1;HPM_P2
2022/05/19 00:01:01;;;;;;;5.40;4.93;;;16.10;99.90;;;16.84;75.29;98382.91;5204677;28;20232;-60
2022/05/19 00:03:38;;;;;;;5.00;4.60;;;16.10;99.90;;;16.82;75.63;98379.38;5205730;28;20202;-60
2022/05/19 00:06:13;;;;;;;5.35;4.80;;;16.00;99.90;;;16.83;74.83;98375.13;5203487;28;20217;-61
2022/05/19 00:08:46;;;;;;;4.35;4.00;;;16.00;99.90;;;16.88;74.21;98366.75;5206920;28;20288;-59
2022/05/19 00:11:27;;;;;;;4.63;4.32;;;16.10;99.90;;;16.85;74.78;98378.63;5204841;28;20297;-61
2022/05/19 00:14:01;;;;;;;4.32;4.03;;;16.00;99.90;;;16.75;73.24;98374.78;5203969;28;20259;-61
2022/05/19 00:16:34;;;;;;;4.78;4.38;;;15.90;99.90;;;16.72;73.80;98378.94;5202538;28;20228;-61
2022/05/19 00:19:08;;;;;;;5.00;4.60;;;15.90;99.90;;;16.72;73.87;98381.50;5204746;28;20213;-61
2022/05/19 00:21:43;;;;;;;5.03;4.72;;;15.90;99.90;;;16.69;73.81;98383.97;5206992;28;20200;-61
2022/05/19 00:24:16;;;;;;;5.20;4.75;;;15.90;99.90;;;16.61;74.22;98384.53;5204879;28;20197;-61
2022/05/19 00:26:50;;;;;;;5.13;4.63;;;15.80;99.90;;;16.62;74.07;98381.09;5203211;28;20222;-60
2022/05/19 00:29:23;;;;;;;5.05;4.68;;;15.70;99.90;;;16.47;74.51;98380.47;5201441;28;20297;-61
2022/05/19 00:31:56;;;;;;;4.90;4.50;;;15.50;99.90;;;16.40;75.34;98383.63;5207194;28;20232;-60
2022/05/19 00:34:31;;;;;;;5.15;4.65;;;15.50;99.90;;;16.31;75.63;98370.31;5199792;28;20698;-61
2022/05/19 00:37:05;;;;;;;5.90;5.07;;;15.40;99.90;;;16.23;77.75;98375.16;5203670;28;20786;-60
2022/05/19 00:39:38;;;;;;;6.25;4.75;;;15.40;99.90;;;16.18;77.25;98372.38;5197948;28;20293;-59
2022/05/19 00:45:08;;;;;;;5.55;5.15;;;15.40;99.90;;;16.17;76.59;98380.94;5207015;28;20554;-57
2022/05/19 00:47:48;;;;;;;5.75;5.35;;;15.30;99.90;;;16.09;77.72;98371.97;5210131;28;20671;-59
2022/05/19 00:50:28;;;;;;;5.40;4.80;;;15.30;99.90;;;16.06;77.50;98371.84;5211093;28;20197;-60
2022/05/19 00:53:09;;;;;;;5.45;5.05;;;15.20;99.90;;;16.05;78.81;98374.34;5204920;28;20229;-60
2022/05/19 00:55:45;;;;;;;5.72;5.30;;;15.20;99.90;;;16.03;78.29;98366.56;5203509;28;20224;-59
2022/05/19 00:58:25;;;;;;;5.90;5.38;;;15.20;99.90;;;16.02;78.11;98375.09;5207258;28;20203;-60
2022/05/19 01:00:58;;;;;;;6.15;5.75;;;15.20;99.90;;;16.02;79.25;98367.34;5205817;28;20228;-60
2022/05/19 01:03:38;;;;;;;6.28;5.68;;;15.20;99.90;;;15.98;79.88;98363.78;5206992;28;20197;-60
2022/05/19 01:06:16;;;;;;;5.85;5.35;;;15.20;99.90;;;15.83;77.71;98365.69;5205042;28;20221;-60
2022/05/19 01:08:55;;;;;;;5.25;4.85;;;15.10;99.90;;;15.84;78.80;98364.84;5207894;28;20288;-60
2022/05/19 01:11:29;;;;;;;5.07;4.68;;;15.00;99.90;;;15.86;79.08;98358.09;5209883;28;20221;-60
2022/05/19 01:14:02;;;;;;;5.07;4.40;;;15.10;99.90;;;15.83;77.65;98355.38;5205436;28;22130;-60
2022/05/19 01:16:35;;;;;;;5.10;4.70;;;15.10;99.90;;;15.76;75.92;98361.94;5206772;28;20590;-53
2022/05/19 01:19:22;;;;;;;4.68;4.28;;;14.90;99.90;;;15.72;74.90;98357.47;5210366;28;20209;-57
2022/05/19 01:22:05;;;;;;;4.90;4.60;;;14.90;99.90;;;15.72;74.87;98354.88;5200808;28;20193;-56
2022/05/19 01:24:47;;;;;;;4.32;4.00;;;14.90;99.90;;;15.66;74.69;98349.44;5205621;28;20640;-51
2022/05/19 01:27:22;;;;;;;4.55;4.15;;;14.90;99.90;;;15.63;75.04;98356.16;5209002;28;20221;-53
2022/05/19 01:29:55;;;;;;;4.57;4.25;;;14.90;99.90;;;15.59;74.79;98347.38;5205623;28;20204;-56
2022/05/19 01:32:31;;;;;;;4.63;4.22;;;14.90;99.90;;;15.57;75.39;98348.13;5203763;28;20202;-53
2022/05/19 01:35:05;;;;;;;6.38;4.00;;;14.90;99.90;;;15.64;74.24;98348.47;5202029;28;20291;-57
2022/05/19 01:37:38;;;;;;;4.60;4.20;;;15.00;99.90;;;15.64;75.03;98340.75;5207084;28;20217;-54
2022/05/19 01:40:30;;;;;;;4.43;4.03;;;14.90;99.90;;;15.60;75.64;98336.28;5208275;28;20579;-53
2022/05/19 01:43:17;;;;;;;4.70;4.32;;;14.90;99.90;;;15.60;74.61;98340.56;5200904;28;20248;-56
2022/05/19 01:46:06;;;;;;;5.50;5.00;;;14.80;99.90;;;15.51;75.43;98333.28;5206246;28;20228;-57
2022/05/19 01:48:48;;;;;;;4.13;3.85;;;14.70;99.90;;;15.43;74.37;98334.63;5204786;28;20610;-55
2022/05/19 01:51:30;;;;;;;4.63;4.32;;;14.70;99.90;;;15.44;75.33;98328.66;5203168;28;20204;-55
2022/05/19 01:54:10;;;;;;;4.90;4.22;;;14.60;99.90;;;15.36;74.96;98332.56;5206821;28;20244;-57
2022/05/19 01:56:51;;;;;;;4.57;4.15;;;14.50;99.90;;;15.17;74.42;98336.00;5205468;28;20669;-54
2022/05/19 01:59:33;;;;;;;4.70;4.30;;;14.40;99.90;;;15.13;74.41;98334.97;5208165;28;20293;-55
2022/05/19 02:02:13;;;;;;;4.50;4.20;;;14.30;99.90;;;14.90;75.07;98325.28;5203541;28;20194;-54
2022/05/19 02:04:54;;;;;;;4.63;3.85;;;14.10;99.90;;;14.87;74.66;98318.28;5200905;28;20198;-53
2022/05/19 02:07:30;;;;;;;4.55;4.15;;;14.10;99.90;;;14.91;75.89;98324.44;5206727;28;20282;-54
2022/05/19 02:10:08;;;;;;;4.40;4.10;;;14.20;99.90;;;14.98;75.62;98319.69;5205435;28;20750;-51
2022/05/19 02:12:42;;;;;;;4.72;4.32;;;14.20;99.90;;;15.01;76.57;98318.94;5206208;28;20227;-51
2022/05/19 02:15:21;;;;;;;4.72;4.43;;;14.30;99.90;;;15.10;75.58;98309.06;5202761;28;20303;-53
2022/05/19 02:17:55;;;;;;;4.22;4.00;;;14.40;99.90;;;15.10;75.93;98329.66;5208997;28;20193;-55
2022/05/19 02:20:30;;;;;;;4.88;4.47;;;14.40;99.90;;;15.08;75.23;98321.88;5204373;28;20737;-56
2022/05/19 02:23:04;;;;;;;4.72;4.32;;;14.40;99.90;;;15.09;74.86;98310.75;5204001;28;20229;-55
2022/05/19 02:25:43;;;;;;;4.22;3.92;;;14.30;99.90;;;14.99;74.38;98315.41;5198162;28;20759;-55
2022/05/19 02:28:22;;;;;;;4.65;4.25;;;14.20;99.90;;;15.04;75.03;98308.78;5169604;28;1071868;-60
2022/05/19 02:30:58;;;;;;;4.90;4.45;;;14.20;99.90;;;14.94;75.50;98316.91;5206429;28;20656;-56
2022/05/19 02:33:31;;;;;;;4.53;4.20;;;14.10;99.90;;;14.96;76.73;98304.97;5206564;28;20209;-55
2022/05/19 02:36:06;;;;;;;5.30;4.85;;;14.10;99.90;;;14.86;76.06;98304.53;5207810;28;20252;-53
2022/05/19 02:38:39;;;;;;;5.15;4.75;;;14.10;99.90;;;14.84;75.38;98310.44;5203781;28;20204;-52
2022/05/19 02:41:12;;;;;;;5.35;4.95;;;14.10;99.90;;;14.90;75.59;98307.25;5205072;28;20653;-56
2022/05/19 02:43:45;;;;;;;5.30;4.90;;;14.10;99.90;;;14.91;76.92;98311.59;5206328;28;20198;-55
2022/05/19 02:46:19;;;;;;;5.35;4.82;;;14.20;99.90;;;14.77;76.04;98313.53;5207332;28;20217;-53
2022/05/19 02:48:53;;;;;;;4.88;4.57;;;14.10;99.90;;;14.75;76.50;98313.44;5205449;28;20205;-53
2022/05/19 02:51:26;;;;;;;4.53;4.13;;;14.00;99.90;;;14.76;76.76;98312.63;5206023;28;20197;-55
2022/05/19 02:53:59;;;;;;;6.60;4.95;;;14.00;99.90;;;14.78;76.97;98313.59;5209359;28;20711;-53
2022/05/19 02:56:32;;;;;;;5.13;4.72;;;14.00;99.90;;;14.76;76.39;98315.19;5205763;28;20730;-54
2022/05/19 02:59:05;;;;;;;5.50;5.00;;;13.90;99.90;;;14.79;77.10;98315.38;5211027;28;20189;-51
2022/05/19 03:01:40;;;;;;;5.65;5.25;;;14.00;99.90;;;14.78;77.29;98315.28;5200039;28;20213;-56
2022/05/19 03:04:13;;;;;;;4.90;4.50;;;14.00;99.90;;;14.74;76.44;98321.97;5202786;28;20204;-51
2022/05/19 03:06:46;;;;;;;5.47;4.97;;;14.00;99.90;;;14.74;76.28;98314.25;5203713;28;20217;-50
2022/05/19 03:09:19;;;;;;;4.93;4.45;;;13.90;99.90;;;14.67;75.39;98308.75;5206740;28;20210;-54
2022/05/19 03:11:52;;;;;;;5.57;5.07;;;13.90;99.90;;;14.54;75.94;98303.00;5202047;28;20684;-52
2022/05/19 03:14:25;;;;;;;5.15;4.75;;;13.80;99.90;;;14.54;75.51;98309.84;5202210;28;20749;-53
2022/05/19 03:17:00;;;;;;;5.78;5.25;;;13.80;99.90;;;14.63;77.28;98312.88;5204507;28;20253;-52
2022/05/19 03:19:33;;;;;;;5.97;5.38;;;13.90;99.90;;;14.62;78.24;98313.66;5206331;28;20193;-52
2022/05/19 03:22:07;;;;;;;5.32;4.82;;;14.00;99.90;;;14.59;77.65;98313.50;5212633;28;20709;-57
2022/05/19 03:24:40;;;;;;;5.40;5.03;;;13.90;99.90;;;14.64;77.08;98314.63;5203364;28;20209;-52
2022/05/19 03:27:13;;;;;;;5.03;4.65;;;13.90;99.90;;;14.62;77.50;98313.66;5212765;28;20689;-57
2022/05/19 03:29:46;;;;;;;5.18;4.68;;;13.90;99.90;;;14.62;77.74;98318.78;5203749;28;20758;-53
2022/05/19 03:32:22;;;;;;;4.90;4.50;;;13.90;99.90;;;14.55;77.93;98327.03;5206893;28;20202;-51
2022/05/19 03:34:55;;;;;;;5.55;4.63;;;13.80;99.90;;;14.53;77.06;98323.50;5205920;28;20726;-54
2022/05/19 03:37:28;;;;;;;5.30;4.90;;;13.70;99.90;;;14.47;78.15;98328.31;5207543;28;20284;-51
2022/05/19 03:40:01;;;;;;;4.85;4.53;;;13.70;99.90;;;14.46;78.09;98321.41;5208994;28;20197;-53
2022/05/19 03:42:34;;;;;;;5.15;4.80;;;13.70;99.90;;;14.42;79.70;98330.66;5204228;28;20229;-53
2022/05/19 03:45:09;;;;;;;5.90;5.50;;;13.70;99.90;;;14.49;79.84;98331.84;5203683;28;20202;-52
2022/05/19 03:47:43;;;;;;;5.00;4.63;;;13.70;99.90;;;14.49;78.77;98334.44;5203845;28;20619;-52
2022/05/19 03:50:17;;;;;;;5.13;4.78;;;13.70;99.90;;;14.48;77.53;98325.84;5209884;28;20233;-53
2022/05/19 03:52:50;;;;;;;5.15;4.75;;;13.70;99.90;;;14.41;77.58;98321.19;5212098;28;20651;-54
2022/05/19 03:55:24;;;;;;;4.78;4.38;;;13.60;99.90;;;14.40;77.08;98327.13;5206272;28;20308;-53
2022/05/19 03:57:57;;;;;;;5.03;4.60;;;13.50;99.90;;;14.34;78.68;98326.84;5203696;28;20201;-51
2022/05/19 04:00:30;;;;;;;4.90;4.60;;;13.60;99.90;;;14.37;78.63;98333.00;5205842;28;20194;-57
2022/05/19 04:03:04;;;;;;;4.60;4.30;;;13.60;99.90;;;14.35;78.64;98334.63;5200202;28;20802;-56
2022/05/19 04:05:38;;;;;;;5.68;5.28;;;13.40;99.90;;;14.25;79.13;98332.41;5205115;28;20221;-55
2022/05/19 04:08:11;;;;;;;5.15;4.65;;;13.40;99.90;;;14.20;78.04;98333.84;5208895;28;20721;-57
2022/05/19 04:10:47;;;;;;;4.90;4.60;;;13.30;99.90;;;14.08;76.89;98335.78;5203959;28;20201;-57
2022/05/19 04:13:20;;;;;;;4.90;4.50;;;13.20;99.90;;;14.15;77.30;98332.72;5205561;28;20233;-56
2022/05/19 04:15:53;;;;;;;5.32;4.93;;;13.30;99.90;;;14.03;76.29;98344.97;5203755;28;20309;-57
2022/05/19 04:18:27;;;;;;;4.90;4.40;;;13.40;99.90;;;14.02;77.98;98332.91;5206856;28;20202;-56
2022/05/19 04:21:00;;;;;;;4.65;4.40;;;13.30;99.90;;;14.16;78.52;98340.53;5206239;28;20590;-57
2022/05/19 04:23:33;;;;;;;5.30;4.80;;;13.50;99.90;;;14.29;78.11;98338.56;5198753;28;20590;-57
2022/05/19 04:26:06;;;;;;;4.60;4.22;;;13.60;99.90;;;14.25;75.03;98327.25;5206906;28;20221;-56
2022/05/19 04:28:39;;;;;;;4.72;4.43;;;13.60;99.90;;;14.34;76.66;98317.44;5201883;28;20205;-57
2022/05/19 04:31:12;;;;;;;4.97;4.60;;;13.70;99.90;;;14.45;75.61;98327.34;5205203;28;20292;-56
2022/05/19 04:33:47;;;;;;;4.65;4.25;;;13.80;99.90;;;14.60;75.05;98336.75;5200160;28;20288;-58
2022/05/19 04:36:20;;;;;;;5.05;4.68;;;13.90;99.90;;;14.72;75.40;98339.03;5203100;28;20315;-57
2022/05/19 04:38:53;;;;;;;5.03;4.53;;;14.00;99.90;;;14.72;74.42;98331.31;5206144;28;20240;-56
2022/05/19 04:41:26;;;;;;;5.45;4.40;;;14.00;99.90;;;14.75;73.80;98336.59;5207491;28;20287;-58
2022/05/19 04:43:59;;;;;;;4.85;4.35;;;13.90;99.90;;;14.81;74.39;98342.03;5200569;28;20202;-58
2022/05/19 04:46:32;;;;;;;4.55;4.32;;;14.00;99.90;;;14.88;73.13;98338.09;5199437;28;20221;-57
2022/05/19 04:49:07;;;;;;;4.90;4.50;;;14.10;99.90;;;14.96;72.54;98343.59;5200736;28;20193;-57
2022/05/19 04:51:40;;;;;;;5.25;4.85;;;14.20;99.90;;;15.12;73.00;98348.66;5200068;28;20674;-57
2022/05/19 04:54:13;;;;;;;4.82;4.25;;;14.40;99.90;;;15.25;73.45;98351.00;5207912;28;20240;-57
2022/05/19 04:56:46;;;;;;;5.13;4.63;;;14.40;99.90;;;15.45;73.25;98351.00;5203244;28;20225;-57
2022/05/19 04:59:19;;;;;;;5.15;4.75;;;14.60;99.90;;;15.51;71.52;98349.63;5203870;28;20201;-58
2022/05/19 05:01:52;;;;;;;5.03;4.63;;;14.70;99.90;;;15.67;72.02;98355.47;5198871;28;20328;-58
2022/05/19 05:04:27;;;;;;;5.57;4.55;;;14.80;99.90;;;16.01;71.84;98351.84;5208590;28;20240;-58
2022/05/19 05:07:00;;;;;;;5.47;5.05;;;15.00;99.90;;;16.29;70.21;98356.50;5213626;28;20706;-57
2022/05/19 05:09:34;;;;;;;5.63;5.13;;;15.30;99.90;;;16.43;70.31;98368.28;5212494;28;20288;-55
2022/05/19 05:12:09;;;;;;;4.70;4.40;;;15.50;99.90;;;16.61;69.40;98363.88;5216117;28;20287;-58
2022/05/19 05:14:42;;;;;;;6.18;4.63;;;15.80;99.90;;;16.74;67.09;98365.28;5215090;28;20205;-54
2022/05/19 05:17:21;;;;;;;4.60;4.30;;;15.80;99.90;;;17.08;66.80;98356.31;5213190;28;20225;-55
2022/05/19 05:19:55;;;;;;;4.55;4.28;;;16.10;99.90;;;17.46;66.26;98355.22;5198886;28;20676;-56
2022/05/19 05:22:30;;;;;;;4.60;4.13;;;16.50;99.90;;;17.98;64.60;98356.28;5203787;28;20212;-55
2022/05/19 05:25:04;;;;;;;4.22;3.83;;;17.10;99.90;;;18.66;63.74;98359.50;5204816;28;20268;-57
2022/05/19 05:27:37;;;;;;;4.22;3.83;;;17.70;99.90;;;19.02;62.44;98365.00;5212778;28;20216;-53
2022/05/19 05:30:13;;;;;;;4.68;4.28;;;17.90;99.90;;;19.16;61.69;98357.69;5204286;28;20287;-54
2022/05/19 05:32:46;;;;;;;4.60;4.05;;;18.10;99.90;;;19.31;60.36;98363.31;5207413;28;20217;-57
2022/05/19 05:35:21;;;;;;;4.03;3.70;;;18.00;99.90;;;19.46;60.00;98362.94;5205327;28;20689;-55
2022/05/19 05:37:53;;;;;;;4.38;3.97;;;18.30;99.90;;;19.67;59.08;98367.91;5203463;28;20198;-55
2022/05/19 05:40:27;;;;;;;4.03;3.72;;;18.40;99.90;;;19.87;57.71;98376.25;5212777;28;20305;-59
2022/05/19 05:43:07;;;;;;;3.83;3.53;;;18.40;99.90;;;20.18;56.69;98375.41;5216757;28;20201;-61
2022/05/19 05:45:41;;;;;;;4.45;4.05;;;18.70;99.90;;;20.57;54.96;98377.31;5200789;28;20220;-61
2022/05/19 05:48:15;;;;;;;4.80;4.40;;;19.10;99.40;;;20.93;54.11;98368.69;5212747;28;20228;-61
2022/05/19 05:50:49;;;;;;;4.05;3.75;;;19.40;98.20;;;21.28;52.99;98373.84;5207244;28;20571;-62
2022/05/19 05:53:22;;;;;;;4.97;3.90;;;19.60;98.10;;;21.51;52.25;98384.81;5208605;28;20679;-61
2022/05/19 05:55:55;;;;;;;4.35;3.95;;;19.80;98.30;;;21.63;52.64;98389.41;5202764;28;20222;-62
2022/05/19 05:58:29;;;;;;;3.85;3.50;;;20.00;98.00;;;22.16;51.49;98381.81;5212193;28;20202;-61
2022/05/19 06:01:04;;;;;;;4.85;4.07;;;20.30;97.60;;;22.67;50.23;98376.72;5201150;28;20230;-61
2022/05/19 06:03:37;;;;;;;4.05;3.65;;;20.60;97.00;;;22.99;48.77;98375.56;5198091;28;20290;-62
2022/05/19 06:06:11;;;;;;;4.05;3.50;;;20.90;96.00;;;23.27;47.27;98367.28;5202285;28;20606;-61
2022/05/19 06:08:45;;;;;;;3.80;3.50;;;21.00;95.40;;;23.46;46.76;98362.34;5208798;28;20289;-61
2022/05/19 06:11:19;;;;;;;4.03;3.58;;;21.00;95.20;;;23.85;46.21;98361.16;5206673;28;20241;-61
2022/05/19 06:13:52;;;;;;;4.72;3.83;;;21.40;94.90;;;23.94;46.39;98358.66;5201651;28;20201;-60
2022/05/19 06:16:25;;;;;;;4.90;3.80;;;21.50;94.80;;;23.99;46.55;98360.44;5198469;28;20334;-61
2022/05/19 06:18:58;;;;;;;4.18;3.47;;;21.60;95.00;;;24.23;45.66;98358.97;5210587;28;20304;-62
2022/05/19 06:21:36;;;;;;;4.00;3.70;;;21.70;94.60;;;24.55;45.10;98348.88;5209422;28;20193;-62
2022/05/19 06:24:10;;;;;;;3.70;3.40;;;22.10;94.10;;;24.78;43.47;98348.19;5212955;28;20628;-60
2022/05/19 06:26:43;;;;;;;3.67;3.35;;;22.40;93.10;;;24.95;43.23;98346.59;5201244;28;20214;-62
2022/05/19 06:29:16;;;;;;;3.63;3.30;;;22.60;92.70;;;24.52;41.98;98358.41;5211717;28;20213;-61
2022/05/19 06:31:49;;;;;;;5.25;4.18;;;22.70;90.70;;;24.53;40.88;98363.69;5206389;28;20230;-62
2022/05/19 06:34:22;;;;;;;5.50;3.70;;;22.80;89.10;;;24.77;40.26;98357.78;5207908;28;20205;-60
2022/05/19 06:36:57;;;;;;;4.00;3.58;;;23.20;88.50;;;25.43;38.06;98363.53;5208637;28;20228;-62
2022/05/19 06:39:30;;;;;;;3.63;3.33;;;23.50;85.50;;;25.68;38.47;98363.69;5209807;28;20211;-62
2022/05/19 06:42:04;;;;;;;3.67;3.38;;;23.80;84.40;;;25.97;37.16;98364.69;5203806;28;20229;-62
2022/05/19 06:44:39;;;;;;;5.60;3.78;;;24.00;82.60;;;26.11;37.39;98362.13;5204266;28;20197;-61
2022/05/19 06:47:17;;;;;;;4.85;2.97;;;24.20;83.20;;;26.17;37.49;98362.16;5206018;28;20225;-62
2022/05/19 06:49:52;;;;;;;3.63;3.10;;;24.50;82.20;;;26.05;37.15;98370.84;5211018;28;20196;-62
2022/05/19 06:52:30;;;;;;;3.85;3.38;;;24.70;80.50;;;26.50;37.21;98361.38;5205990;28;20353;-62
2022/05/19 06:55:04;;;;;;;4.63;3.40;;;24.70;81.80;;;26.51;36.54;98367.50;5213369;28;20200;-62
2022/05/19 06:57:37;;;;;;;3.70;3.33;;;24.90;79.90;;;26.84;35.77;98371.91;5215847;28;20216;-62
2022/05/19 07:00:16;;;;;;;3.88;3.22;;;24.90;79.50;;;26.94;35.89;98368.41;5200957;28;20234;-62
2022/05/19 07:02:53;;;;;;;3.30;3.00;;;25.30;79.40;;;27.21;35.20;98361.41;5203663;28;20225;-62
2022/05/19 07:05:30;;;;;;;3.10;2.72;;;25.70;78.20;;;27.59;35.51;98368.34;5214038;28;20634;-62
2022/05/19 07:08:06;;;;;;;3.63;3.33;;;25.80;78.70;;;27.90;34.08;98360.38;5215579;28;20224;-62
2022/05/19 07:10:39;;;;;;;3.83;3.15;;;26.00;76.50;;;27.66;35.00;98369.22;5206885;28;20189;-62
2022/05/19 07:13:12;;;;;;;3.83;3.53;;;26.00;77.00;;;27.96;34.68;98368.28;5212780;28;20201;-63
2022/05/19 07:15:46;;;;;;;4.07;3.45;;;26.20;76.50;;;28.07;34.51;98364.72;5198250;28;20305;-62
2022/05/19 07:18:19;;;;;;;4.05;3.53;;;26.20;76.40;;;28.05;34.37;98362.97;5207230;28;20221;-62
2022/05/19 07:20:52;;;;;;;4.43;3.50;;;26.10;76.90;;;28.28;34.01;98366.34;5208985;28;20284;-62
2022/05/19 07:23:28;;;;;;;4.13;3.53;;;26.40;76.60;;;28.34;34.77;98364.56;5208141;28;20292;-62
2022/05/19 07:26:01;;;;;;;3.75;3.20;;;26.30;77.60;;;28.66;33.66;98361.75;5208074;28;20635;-63
2022/05/19 07:28:35;;;;;;;3.50;3.20;;;26.80;75.70;;;28.84;34.16;98355.47;5202914;28;20209;-62
2022/05/19 07:31:09;;;;;;;3.28;3.08;;;26.80;76.90;;;29.29;33.12;98358.59;5203078;28;20567;-61
2022/05/19 07:33:42;;;;;;;3.55;3.20;;;27.10;75.70;;;29.53;33.36;98363.63;5209717;28;20288;-63
2022/05/19 07:36:15;;;;;;;3.22;2.85;;;27.30;76.20;;;29.60;33.16;98356.53;5211261;28;20232;-62
2022/05/19 07:38:49;;;;;;;3.28;2.97;;;27.40;75.40;;;29.67;32.53;98352.94;5205354;28;20204;-63
2022/05/19 07:41:23;;;;;;;6.13;3.60;;;27.50;75.30;;;29.28;33.73;98359.50;5202187;28;20200;-60
2022/05/19 07:43:57;;;;;;;3.25;3.05;;;27.40;75.20;;;30.17;32.86;98359.38;5210520;28;20244;-57
2022/05/19 07:46:31;;;;;;;3.47;3.13;;;27.70;76.10;;;29.51;32.62;98354.88;5214706;28;20217;-57
2022/05/19 07:49:04;;;;;;;3.83;3.22;;;27.90;74.20;;;30.04;31.61;98353.38;5214848;28;20204;-59
2022/05/19 07:51:40;;;;;;;3.20;3.00;;;27.70;73.10;;;29.99;32.26;98341.13;5209743;28;20297;-56
2022/05/19 07:54:17;;;;;;;3.80;3.50;;;27.40;75.30;;;30.42;32.82;98346.75;5218323;28;20232;-57
2022/05/19 07:56:51;;;;;;;3.42;3.13;;;27.80;76.20;;;30.61;32.08;98335.88;5214036;28;20255;-60
2022/05/19 07:59:24;;;;;;;3.80;3.38;;;27.90;75.00;;;30.76;31.38;98330.34;5206411;28;20198;-56
2022/05/19 08:01:58;;;;;;;3.80;3.40;;;28.00;74.00;;;30.21;32.61;98336.44;5214834;28;20200;-58
2022/05/19 08:04:31;;;;;;;3.45;2.92;;;27.90;75.10;;;30.55;32.14;98330.72;5217239;28;20224;-57
2022/05/19 08:07:05;;;;;;;2.88;2.67;;;28.60;73.70;;;30.50;33.02;98336.94;5208031;28;20407;-59
2022/05/19 08:15:36;;;;;;;4.05;3.55;;;28.60;74.50;;;30.24;33.23;98339.06;5215493;28;20616;-57
2022/05/19 08:18:12;;;;;;;3.72;3.17;;;28.60;74.40;;;30.28;32.96;98340.78;5215649;28;20209;-60
2022/05/19 08:20:48;;;;;;;3.72;3.42;;;28.60;74.10;;;30.46;33.57;98347.56;5213985;28;20205;-59
2022/05/19 08:23:24;;;;;;;4.43;3.30;;;28.70;74.80;;;30.23;33.32;98334.69;5215337;28;20531;-60
2022/05/19 08:26:00;;;;;;;3.38;2.83;;;28.50;74.30;;;29.89;34.48;98335.13;5209546;28;20676;-60
2022/05/19 08:28:36;;;;;;;4.05;3.08;;;28.50;75.70;;;30.00;34.36;98335.84;5205530;28;20200;-60
2022/05/19 08:31:14;;;;;;;3.85;3.45;;;28.70;74.40;;;30.16;34.18;98340.91;5214166;28;20615;-60
2022/05/19 08:33:51;;;;;;;3.50;3.20;;;28.80;74.90;;;30.28;34.47;98335.50;5213592;28;20235;-60
2022/05/19 08:36:27;;;;;;;3.55;3.25;;;29.00;75.00;;;30.39;33.85;98338.88;5217850;28;20216;-60
2022/05/19 08:39:01;;;;;;;3.88;3.58;;;29.00;73.90;;;30.46;34.41;98331.72;5210692;28;20253;-63
2022/05/19 08:41:42;;;;;;;3.65;3.35;;;29.30;74.80;;;30.51;35.23;98337.81;5217115;28;20284;-59
2022/05/19 08:44:21;;;;;;;3.60;3.30;;;29.30;75.40;;;30.27;36.22;98339.03;5215827;28;20681;-61
2022/05/19 08:46:57;;;;;;;3.65;3.40;;;29.10;77.10;;;30.59;34.71;98333.28;5217536;28;20216;-57
2022/05/19 08:49:39;;;;;;;3.15;2.92;;;29.30;74.80;;;30.59;34.11;98328.00;5213898;28;20227;-59
2022/05/19 08:52:17;;;;;;;3.42;3.13;;;29.40;73.90;;;30.75;34.54;98333.91;5212366;28;20201;-57
2022/05/19 08:54:53;;;;;;;3.33;3.05;;;29.50;74.80;;;30.91;33.36;98335.44;5212211;28;20667;-57
2022/05/19 08:57:31;;;;;;;3.38;3.08;;;29.70;72.60;;;30.80;33.94;98325.94;5215697;28;20808;-56
2022/05/19 09:00:11;;;;;;;3.30;3.10;;;29.60;73.70;;;30.72;35.05;98333.94;5205933;28;20198;-61
2022/05/19 09:02:48;;;;;;;5.47;3.47;;;29.60;75.00;;;30.83;34.15;98326.75;5203651;28;20204;-57
2022/05/19 09:05:42;;;;;;;3.83;3.17;;;29.60;74.30;;;30.80;34.48;98325.94;5201699;28;20664;-57
2022/05/19 09:08:27;;;;;;;3.78;2.78;;;29.60;74.50;;;30.74;33.99;98316.31;5211028;28;20194;-59
2022/05/19 09:11:10;;;;;;;3.70;3.35;;;29.40;74.40;;;30.70;34.54;98331.31;5209510;28;20673;-57
2022/05/19 09:13:51;;;;;;;3.95;3.63;;;29.40;74.40;;;30.59;35.21;98324.47;5220935;28;20268;-59
2022/05/19 09:16:28;;;;;;;3.95;3.40;;;29.40;74.90;;;30.69;34.63;98323.44;5213478;28;20221;-55
2022/05/19 09:19:08;;;;;;;4.15;3.67;;;29.60;74.40;;;30.64;34.39;98320.88;5207795;28;20298;-54
2022/05/19 09:21:43;;;;;;;3.65;3.33;;;29.50;74.10;;;30.36;35.92;98319.56;5207492;28;20687;-53
2022/05/19 09:24:16;;;;;;;3.30;3.00;;;29.40;75.60;;;30.50;35.51;98317.56;5205413;28;20208;-59
2022/05/19 09:26:53;;;;;;;3.50;3.20;;;29.60;75.70;;;30.65;35.16;98317.34;5213945;28;20217;-57
2022/05/19 09:29:35;;;;;;;5.53;3.47;;;29.60;74.60;;;30.84;34.65;98320.56;5206513;28;20212;-59
2022/05/19 09:32:14;;;;;;;3.35;3.05;;;29.70;74.60;;;31.03;34.66;98312.34;5206174;28;20197;-61
2022/05/19 09:34:50;;;;;;;3.30;3.00;;;30.00;74.60;;;30.96;35.17;98322.13;5202438;28;20679;-57
2022/05/19 09:37:38;;;;;;;3.50;3.20;;;30.00;74.20;;;31.05;33.76;98322.00;5204971;28;20221;-57
2022/05/19 09:40:22;;;;;;;4.40;3.40;;;30.00;72.60;;;31.06;34.19;98312.28;5207958;28;20201;-58
2022/05/19 09:43:20;;;;;;;3.65;3.35;;;30.10;73.50;;;31.32;34.49;98319.72;5200362;28;20236;-60
2022/05/19 09:46:04;;;;;;;3.67;3.38;;;30.20;74.80;;;31.46;32.80;98311.56;5207161;28;20694;-61
2022/05/19 09:48:45;;;;;;;3.67;3.33;;;30.20;72.50;;;31.42;34.14;98306.34;5208369;28;20255;-61
2022/05/19 09:51:20;;;;;;;3.17;2.88;;;30.30;73.90;;;31.38;34.11;98304.66;5204444;28;20205;-59
2022/05/19 09:53:56;;;;;;;3.72;3.40;;;30.30;73.80;;;31.34;33.88;98305.59;5210833;28;20205;-58
2022/05/19 09:56:38;;;;;;;5.00;3.50;;;30.20;73.30;;;31.31;33.43;98297.72;5210387;28;20270;-59
2022/05/19 09:59:16;;;;;;;3.67;3.20;;;30.20;72.40;;;31.32;33.76;98303.88;5214138;28;20264;-59
2022/05/19 10:02:01;;;;;;;3.13;2.78;;;30.10;73.10;;;31.31;34.24;98297.72;5197576;28;20635;-59
2022/05/19 10:04:41;;;;;;;3.40;3.10;;;30.20;73.60;;;31.46;34.64;98303.66;5195788;28;20687;-59
2022/05/19 10:07:22;;;;;;;3.47;3.00;;;30.30;74.20;;;31.52;33.61;98296.47;5201797;28;20259;-59
2022/05/19 10:09:58;;;;;;;4.45;3.40;;;30.30;73.50;;;31.60;34.01;98298.94;5205650;28;20254;-58
2022/05/19 10:12:44;;;;;;;3.90;3.40;;;30.60;73.00;;;31.51;33.50;98301.78;5211909;28;20629;-59
2022/05/19 10:15:22;;;;;;;3.97;3.40;;;30.30;72.20;;;31.48;33.52;98304.47;5209349;28;20249;-59
2022/05/19 10:18:09;;;;;;;4.18;3.28;;;30.30;72.80;;;31.46;33.95;98301.00;5211253;28;20228;-59
2022/05/19 10:20:49;;;;;;;4.63;3.60;;;30.30;73.70;;;31.49;34.52;98293.00;5206710;28;20839;-59
2022/05/19 10:23:51;;;;;;;3.53;3.25;;;30.50;74.40;;;31.52;33.26;98290.31;5204939;28;20210;-59
2022/05/19 10:26:46;;;;;;;17.30;10.18;;;30.40;72.20;;;31.51;34.45;98293.88;5203920;28;20220;-56
2022/05/19 10:32:53;;;;;;;3.40;3.10;;;30.80;72.30;;;31.73;33.99;98312.78;5200817;28;20237;-59
2022/05/19 10:35:43;;;;;;;3.35;3.15;;;30.70;72.90;;;31.69;33.46;98309.34;5202182;28;20253;-59
2022/05/19 10:38:35;;;;;;;3.60;3.30;;;30.50;72.70;;;31.66;33.95;98303.25;5204426;28;20971;-59
2022/05/19 10:41:18;;;;;;;3.75;3.28;;;30.60;73.40;;;31.70;34.63;98305.78;5204186;28;20557;-59
2022/05/19 10:44:12;;;;;;;3.58;3.25;;;30.70;74.90;;;31.62;34.91;98295.38;5203541;28;21047;-59
2022/05/19 10:46:56;;;;;;;3.70;3.42;;;30.60;74.30;;;31.57;34.89;98297.25;5207059;28;20226;-59
2022/05/19 10:50:00;;;;;;;3.92;3.50;;;30.40;74.70;;;31.56;34.43;98284.94;5208425;28;20594;-57
2022/05/19 10:52:54;;;;;;;4.10;3.70;;;30.50;73.50;;;31.55;35.73;98288.47;5204007;28;20292;-58
2022/05/19 10:55:38;;;;;;;4.70;3.70;;;30.50;75.90;;;31.77;35.76;98290.69;5201697;28;20232;-57
2022/05/19 10:58:30;;;;;;;4.22;3.58;;;30.70;75.60;;;31.74;35.01;98283.69;5201204;28;20218;-58
2022/05/19 11:01:16;;;;;;;3.95;3.65;;;30.60;74.60;;;31.71;34.68;98281.09;5206676;28;20193;-58
2022/05/19 11:04:42;;;;;;;3.75;3.45;;;30.70;73.70;;;31.41;34.71;98278.16;5208578;28;20558;-60
2022/05/19 11:07:36;;;;;;;3.80;3.40;;;30.40;73.40;;;31.63;34.83;98277.75;5198866;28;20233;-61
2022/05/19 11:10:25;;;;;;;3.40;3.20;;;30.70;74.30;;;31.44;35.43;98276.38;5203358;28;20201;-60
2022/05/19 11:13:19;;;;;;;4.43;3.50;;;30.40;75.40;;;31.47;35.88;98276.31;5215558;28;20211;-61